createdAt,value
2022-11-03T00:01:04.051Z,94436.25
2022-11-03T00:03:32.977Z,94428.94
2022-11-03T00:06:06.397Z,94428.09
2022-11-03T00:08:35.115Z,94427.31
2022-11-03T00:11:04.231Z,94438.16
2022-11-03T00:13:31.818Z,94431.09
2022-11-03T00:15:59.444Z,94433.81
2022-11-03T00:18:27.203Z,94434.91
2022-11-03T00:21:02.763Z,94429.47
2022-11-03T00:23:30.914Z,94431.34
2022-11-03T00:26:05.354Z,94427.00
2022-11-03T00:28:33.896Z,94427.84
2022-11-03T00:31:02.055Z,94433.28
2022-11-03T00:33:32.495Z,94421.03
2022-11-03T00:36:00.142Z,94428.09
2022-11-03T00:38:29.091Z,94422.91
2022-11-03T00:40:56.844Z,94424.56
2022-11-03T00:43:24.688Z,94418.56
2022-11-03T00:45:52.303Z,94424.84
2022-11-03T00:48:32.456Z,94432.97
2022-11-03T00:51:04.383Z,94419.41
2022-11-03T00:53:33.543Z,94415.84
2022-11-03T00:56:01.564Z,94420.50
2022-11-03T00:58:29.164Z,94416.94
2022-11-03T01:01:01.072Z,94418.03
2022-11-03T01:03:28.688Z,94408.25
2022-11-03T01:06:13.651Z,94403.91
2022-11-03T01:08:42.596Z,94406.63
2022-11-03T01:11:28.375Z,94401.19
2022-11-03T01:13:56.279Z,94397.66
2022-11-03T01:16:23.947Z,94393.31
2022-11-03T01:18:51.715Z,94391.41
2022-11-03T01:21:19.299Z,94382.19
2022-11-03T01:23:48.366Z,94377.84
2022-11-03T01:26:16.300Z,94374.31
2022-11-03T01:28:45.555Z,94370.78
2022-11-03T01:31:13.895Z,94361.81
2022-11-03T01:33:41.527Z,94365.38
2022-11-03T01:36:09.729Z,94355.59
2022-11-03T01:38:37.482Z,94355.84
2022-11-03T01:41:07.575Z,94358.56
2022-11-03T01:43:35.492Z,94361.28
2022-11-03T01:46:05.266Z,94361.28
2022-11-03T01:48:32.873Z,94362.34
2022-11-03T01:51:00.564Z,94364.28
2022-11-03T01:53:28.143Z,94361.56
2022-11-03T01:55:55.742Z,94365.34
2022-11-03T01:58:25.397Z,94360.72
2022-11-03T02:00:54.745Z,94356.38
2022-11-03T02:03:22.780Z,94355.31
2022-11-03T02:05:50.543Z,94356.38
2022-11-03T02:08:20.116Z,94352.03
2022-11-03T02:10:47.872Z,94341.19
2022-11-03T02:13:17.825Z,94333.28
2022-11-03T02:15:47.396Z,94327.88
2022-11-03T02:18:15.032Z,94325.97
2022-11-03T02:20:42.689Z,94321.66
2022-11-03T02:23:22.561Z,94317.31
2022-11-03T02:25:51.882Z,94320.00
2022-11-03T02:28:20.388Z,94307.25
2022-11-03T02:30:51.870Z,94303.72
2022-11-03T02:33:25.513Z,94303.72
2022-11-03T02:35:56.271Z,94289.34
2022-11-03T02:38:25.151Z,94284.75
2022-11-03T02:40:55.287Z,94288.53
2022-11-03T02:43:23.417Z,94276.03
2022-11-03T02:45:50.971Z,94277.91
2022-11-03T02:48:19.104Z,94274.34
2022-11-03T02:50:47.735Z,94269.75
2022-11-03T02:53:15.619Z,94269.75
2022-11-03T02:55:46.599Z,94268.94
2022-11-03T02:58:18.169Z,94265.41
2022-11-03T03:00:50.877Z,94270.03
2022-11-03T03:03:20.148Z,94263.78
2022-11-03T03:05:47.804Z,94263.78
2022-11-03T03:08:15.461Z,94262.97
2022-11-03T03:10:44.076Z,94257.53
2022-11-03T03:13:13.436Z,94262.16
2022-11-03T03:15:46.187Z,94264.06
2022-11-03T03:18:17.863Z,94257.81
2022-11-03T03:20:48.287Z,94254.28
2022-11-03T03:23:19.108Z,94255.09
2022-11-03T03:25:48.120Z,94248.84
2022-11-03T03:28:16.743Z,94248.84
2022-11-03T03:30:46.140Z,94246.13
2022-11-03T03:33:13.864Z,94244.50
2022-11-03T03:35:42.522Z,94239.09
2022-11-03T03:38:11.927Z,94239.09
2022-11-03T03:40:40.163Z,94234.75
2022-11-03T03:43:08.659Z,94232.84
2022-11-03T03:45:36.400Z,94236.63
2022-11-03T03:48:05.585Z,94230.41
2022-11-03T03:50:34.577Z,94235.81
2022-11-03T03:53:02.451Z,94235.81
2022-11-03T03:55:35.043Z,94237.72
2022-11-03T03:58:02.752Z,94231.50
2022-11-03T04:00:30.417Z,94227.94
2022-11-03T04:02:58.556Z,94225.22
2022-11-03T04:05:27.949Z,94219.00
2022-11-03T04:07:55.524Z,94217.91
2022-11-03T04:10:23.525Z,94214.38
2022-11-03T04:13:08.770Z,94211.94
2022-11-03T04:15:54.128Z,94210.03
2022-11-03T04:18:39.908Z,94204.63
2022-11-03T04:21:28.126Z,94209.25
2022-11-03T04:23:55.688Z,94206.53
2022-11-03T04:26:23.909Z,94200.28
2022-11-03T04:28:51.854Z,94198.66
2022-11-03T04:31:19.665Z,94197.56
2022-11-03T04:33:47.561Z,94195.13
2022-11-03T04:36:19.300Z,94192.13
2022-11-03T04:38:47.099Z,94187.00
2022-11-03T04:41:17.017Z,94187.00
2022-11-03T04:43:45.241Z,94187.78
2022-11-03T04:46:13.321Z,94190.50
2022-11-03T04:48:40.866Z,94185.34
2022-11-03T04:51:14.347Z,94176.41
2022-11-03T04:53:49.441Z,94177.47
2022-11-03T04:56:18.444Z,94161.22
2022-11-03T04:58:47.958Z,94167.44
2022-11-03T05:01:19.592Z,94161.22
2022-11-03T05:03:52.354Z,94144.09
2022-11-03T05:06:21.035Z,94144.09
2022-11-03T05:08:51.947Z,94137.88
2022-11-03T05:11:31.888Z,94135.16
2022-11-03T05:14:00.250Z,94132.44
2022-11-03T05:16:28.800Z,94128.91
2022-11-03T05:18:56.413Z,94124.31
2022-11-03T05:21:24.067Z,94112.94
2022-11-03T05:23:54.085Z,94109.38
2022-11-03T05:26:23.656Z,94106.66
2022-11-03T05:28:52.876Z,94105.88
2022-11-03T05:31:23.518Z,94105.03
2022-11-03T05:33:52.467Z,94103.97
2022-11-03T05:36:21.583Z,94100.44
2022-11-03T05:38:49.233Z,94103.41
2022-11-03T05:41:21.815Z,94104.22
2022-11-03T05:43:54.391Z,94100.72
2022-11-03T05:46:22.003Z,94089.03
2022-11-03T05:48:50.276Z,94085.50
2022-11-03T05:51:20.544Z,94082.81
2022-11-03T05:53:48.120Z,94074.66
2022-11-03T05:56:20.000Z,94083.88
2022-11-03T05:58:47.653Z,94084.69
2022-11-03T06:01:18.197Z,94081.19
2022-11-03T06:03:45.927Z,94083.88
2022-11-03T06:06:16.081Z,94078.72
2022-11-03T06:08:46.028Z,94074.94
2022-11-03T06:11:22.759Z,94081.44
2022-11-03T06:13:50.384Z,94081.44
2022-11-03T06:16:34.816Z,94066.00
2022-11-03T06:19:02.760Z,94064.38
2022-11-03T06:21:30.318Z,94062.44
2022-11-03T06:23:57.950Z,94068.16
2022-11-03T06:26:28.148Z,94065.44
2022-11-03T06:28:55.829Z,94056.22
2022-11-03T06:31:24.900Z,94061.09
2022-11-03T06:33:52.669Z,94060.03
2022-11-03T06:36:21.555Z,94061.09
2022-11-03T06:38:53.811Z,94058.66
2022-11-03T06:41:24.253Z,94057.84
2022-11-03T06:43:53.347Z,94061.38
2022-11-03T06:46:22.584Z,94058.66
2022-11-03T06:48:50.238Z,94060.53
2022-11-03T06:51:20.572Z,94065.16
2022-11-03T06:53:48.575Z,94064.34
2022-11-03T06:56:17.027Z,94076.81
2022-11-03T06:58:44.592Z,94084.16
2022-11-03T07:01:16.230Z,94084.16
2022-11-03T07:03:43.879Z,94087.66
2022-11-03T07:06:21.131Z,94075.19
2022-11-03T07:08:49.834Z,94074.41
2022-11-03T07:11:18.308Z,94071.69
2022-11-03T07:13:45.877Z,94072.47
2022-11-03T07:16:18.651Z,94062.72
2022-11-03T07:18:47.656Z,94060.00
2022-11-03T07:21:29.936Z,94060.84
2022-11-03T07:23:57.694Z,94065.44
2022-11-03T07:26:25.368Z,94054.59
2022-11-03T07:28:52.992Z,94050.78
2022-11-03T07:31:23.420Z,94043.72
2022-11-03T07:33:51.060Z,94047.28
2022-11-03T07:36:20.695Z,94048.38
2022-11-03T07:38:49.129Z,94032.09
2022-11-03T07:41:18.292Z,94033.72
2022-11-03T07:43:49.326Z,94029.09
2022-11-03T07:46:18.421Z,94025.56
2022-11-03T07:48:47.943Z,94026.38
2022-11-03T07:51:17.454Z,94027.19
2022-11-03T07:53:46.591Z,94019.06
2022-11-03T07:56:15.294Z,94016.88
2022-11-03T07:58:43.123Z,94011.47
2022-11-03T08:01:21.252Z,94007.94
2022-11-03T08:03:50.209Z,94001.41
2022-11-03T08:06:19.948Z,94014.72
2022-11-03T08:08:47.928Z,94009.28
2022-11-03T08:11:15.651Z,94001.16
2022-11-03T08:13:43.400Z,93999.28
2022-11-03T08:16:10.969Z,93988.41
2022-11-03T08:18:38.532Z,93988.13
2022-11-03T08:21:08.230Z,93980.81
2022-11-03T08:23:36.103Z,93974.31
2022-11-03T08:26:03.826Z,93971.88
2022-11-03T08:28:31.623Z,93968.88
2022-11-03T08:31:02.225Z,93965.56
2022-11-03T08:36:03.192Z,93967.75
2022-11-03T08:38:37.036Z,93959.84
2022-11-03T08:41:12.923Z,93956.53
2022-11-03T08:43:40.737Z,93953.28
2022-11-03T08:46:17.229Z,93941.84
2022-11-03T08:48:45.921Z,93948.59
2022-11-03T08:51:14.903Z,93945.00
2022-11-03T08:53:44.193Z,93935.75
2022-11-03T08:56:13.501Z,93940.06
2022-11-03T08:58:42.900Z,93942.47
2022-11-03T09:01:10.686Z,93932.38
2022-11-03T09:03:38.611Z,93929.91
2022-11-03T09:06:06.740Z,93931.84
2022-11-03T09:11:23.383Z,93923.69
2022-11-03T09:13:51.150Z,93919.31
2022-11-03T09:16:18.776Z,93914.63
2022-11-03T09:18:46.518Z,93908.09
2022-11-03T09:21:14.731Z,93895.28
2022-11-03T09:23:42.417Z,93901.19
2022-11-03T09:26:10.090Z,93899.22
2022-11-03T09:28:39.140Z,93893.72
2022-11-03T09:31:07.248Z,93887.16
2022-11-03T09:33:34.930Z,93888.47
2022-11-03T09:36:02.762Z,93887.53
2022-11-03T09:38:30.343Z,93884.25
2022-11-03T09:40:58.048Z,93869.00
2022-11-03T09:43:25.640Z,93871.88
2022-11-03T09:45:55.188Z,93872.91
2022-11-03T09:48:41.624Z,93872.09
2022-11-03T09:51:10.302Z,93872.88
2022-11-03T09:53:37.910Z,93866.06
2022-11-03T09:56:05.982Z,93871.75
2022-11-03T09:58:33.615Z,93867.66
2022-11-03T10:01:02.781Z,93868.16
2022-11-03T10:03:30.375Z,93870.28
2022-11-03T10:05:58.091Z,93861.78
2022-11-03T10:08:26.633Z,93865.84
2022-11-03T10:10:54.409Z,93864.97
2022-11-03T10:13:28.137Z,93858.44
2022-11-03T10:15:56.138Z,93855.13
2022-11-03T10:18:25.346Z,93846.63
2022-11-03T10:20:53.044Z,93844.97
2022-11-03T10:23:20.804Z,93835.38
2022-11-03T10:25:48.459Z,93837.81
2022-11-03T10:28:21.137Z,93828.56
2022-11-03T10:31:13.936Z,93826.66
2022-11-03T10:33:43.345Z,93828.28
2022-11-03T10:36:23.957Z,93823.69
2022-11-03T10:38:51.725Z,93818.84
2022-11-03T10:41:20.305Z,93817.78
2022-11-03T10:44:01.915Z,93821.41
2022-11-03T10:46:48.940Z,93823.09
2022-11-03T10:49:19.141Z,93825.38
2022-11-03T10:51:49.172Z,93825.13
2022-11-03T10:54:17.541Z,93818.66
2022-11-03T10:56:45.266Z,93814.88
2022-11-03T10:59:17.140Z,93814.66
2022-11-03T11:01:44.965Z,93814.16
2022-11-03T11:04:12.823Z,93813.94
2022-11-03T11:06:41.922Z,93810.97
2022-11-03T11:09:11.268Z,93804.72
2022-11-03T11:11:39.107Z,93799.28
2022-11-03T11:14:22.490Z,93799.56
2022-11-03T11:16:51.466Z,93800.97
2022-11-03T11:19:19.082Z,93795.00
2022-11-03T11:22:15.760Z,93786.63
2022-11-03T11:24:59.927Z,93787.47
2022-11-03T11:28:02.930Z,93786.97
2022-11-03T11:31:04.502Z,93784.81
2022-11-03T11:33:34.159Z,93792.44
2022-11-03T11:36:06.585Z,93785.38
2022-11-03T11:39:12.395Z,93783.25
2022-11-03T11:42:12.254Z,93780.03
2022-11-03T11:45:02.960Z,93782.22
2022-11-03T11:47:35.175Z,93777.34
2022-11-03T11:50:23.385Z,93775.72
2022-11-03T11:52:53.357Z,93776.88
2022-11-03T11:55:26.307Z,93767.72
2022-11-03T11:57:53.948Z,93770.50
2022-11-03T12:00:23.850Z,93764.03
2022-11-03T12:02:51.551Z,93756.44
2022-11-03T12:05:20.798Z,93758.63
2022-11-03T12:07:48.432Z,93744.00
2022-11-03T12:10:16.664Z,93741.88
2022-11-03T12:12:45.587Z,93745.69
2022-11-03T12:16:05.259Z,93741.63
2022-11-03T12:18:39.104Z,93742.97
2022-11-03T12:21:09.676Z,93728.84
2022-11-03T12:23:42.238Z,93726.41
2022-11-03T12:26:17.480Z,93727.81
2022-11-03T12:28:46.360Z,93726.19
2022-11-03T12:31:14.002Z,93723.25
2022-11-03T12:33:41.619Z,93721.63
2022-11-03T12:36:09.804Z,93716.47
2022-11-03T12:38:37.395Z,93710.50
2022-11-03T12:41:18.942Z,93707.78
2022-11-03T12:43:48.197Z,93698.31
2022-11-03T12:46:16.289Z,93690.72
2022-11-03T12:48:44.069Z,93688.00
2022-11-03T12:51:12.916Z,93680.44
2022-11-03T12:53:40.800Z,93681.53
2022-11-03T12:56:08.772Z,93676.38
2022-11-03T12:58:36.405Z,93665.81
2022-11-03T13:01:05.460Z,93669.63
2022-11-03T13:03:34.048Z,93669.91
2022-11-03T13:06:02.481Z,93660.44
2022-11-03T13:08:30.220Z,93656.91
2022-11-03T13:10:57.892Z,93666.94
2022-11-03T13:13:24.550Z,93664.53
2022-11-03T13:15:52.977Z,93668.31
2022-11-03T13:18:22.225Z,93657.47
2022-11-03T13:20:49.774Z,93653.13
2022-11-03T13:23:20.286Z,93645.28
2022-11-03T13:25:50.787Z,93640.97
2022-11-03T13:28:18.503Z,93636.63
2022-11-03T13:30:46.028Z,93632.28
2022-11-03T13:33:13.578Z,93623.31
2022-11-03T13:35:42.614Z,93618.16
2022-11-03T13:38:10.222Z,93610.84
2022-11-03T13:43:25.498Z,93608.72
2022-11-03T13:45:53.829Z,93619.06
2022-11-03T13:49:21.543Z,93602.22
2022-11-03T13:51:12.210Z,93605.75
2022-11-03T13:56:28.388Z,93607.44
2022-11-03T14:01:44.005Z,93601.69
2022-11-03T14:07:01.924Z,93582.69
2022-11-03T14:09:29.695Z,93581.38
2022-11-03T14:12:15.065Z,93577.56
2022-11-03T14:14:43.235Z,93574.84
2022-11-03T14:17:13.841Z,93588.13
2022-11-03T14:19:45.009Z,93578.31
2022-11-03T14:22:18.397Z,93574.44
2022-11-03T14:24:46.308Z,93570.06
2022-11-03T14:27:16.657Z,93568.91
2022-11-03T14:29:44.475Z,93572.38
2022-11-03T14:32:12.914Z,93561.44
2022-11-03T14:34:40.618Z,93552.44
2022-11-03T14:37:09.152Z,93555.09
2022-11-03T14:39:38.726Z,93549.09
2022-11-03T14:42:05.740Z,93555.25
2022-11-03T14:44:33.678Z,93559.31
2022-11-03T14:47:02.666Z,93552.19
2022-11-03T14:49:30.319Z,93547.81
2022-11-03T14:51:59.744Z,93539.91
2022-11-03T14:54:27.413Z,93533.56
2022-11-03T14:56:56.827Z,93533.00
2022-11-03T14:59:25.312Z,93520.44
2022-11-03T15:01:53.336Z,93500.59
2022-11-03T15:04:21.056Z,93488.41
2022-11-03T15:06:48.877Z,93482.75
2022-11-03T15:09:16.570Z,93498.03
2022-11-03T15:11:44.371Z,93497.81
2022-11-03T15:14:13.412Z,93493.25
2022-11-03T15:16:41.533Z,93484.56
2022-11-03T15:19:09.107Z,93474.56
2022-11-03T15:21:36.791Z,93461.56
2022-11-03T15:26:52.358Z,93430.34
2022-11-03T15:29:23.827Z,93409.22
2022-11-03T15:31:51.497Z,93408.19
2022-11-03T15:34:19.100Z,93418.53
2022-11-03T15:36:46.712Z,93421.84
2022-11-03T15:39:14.402Z,93425.13
2022-11-03T15:41:42.012Z,93419.19
2022-11-03T15:44:09.966Z,93421.09
2022-11-03T15:46:38.909Z,93410.53
2022-11-03T15:49:06.580Z,93401.56
2022-11-03T15:51:34.222Z,93416.25
2022-11-03T15:54:02.403Z,93417.63
2022-11-03T15:56:30.158Z,93412.19
2022-11-03T15:58:57.769Z,93398.94
2022-11-03T16:01:25.535Z,93404.38
2022-11-03T16:03:54.554Z,93391.34
2022-11-03T16:06:27.003Z,93380.50
2022-11-03T16:09:02.659Z,93374.53
2022-11-03T16:11:30.246Z,93381.09
2022-11-03T16:13:57.807Z,93375.66
2022-11-03T16:16:25.454Z,93360.19
2022-11-03T16:18:54.402Z,93355.53
2022-11-03T16:21:22.023Z,93355.53
2022-11-03T16:23:49.650Z,93350.63
2022-11-03T16:26:21.644Z,93356.88
2022-11-03T16:28:49.252Z,93348.44
2022-11-03T16:31:16.848Z,93343.53
2022-11-03T16:33:44.705Z,93339.69
2022-11-03T16:36:13.664Z,93331.25
2022-11-03T16:38:41.226Z,93323.91
2022-11-03T16:41:08.894Z,93310.84
2022-11-03T16:43:36.478Z,93305.13
2022-11-03T16:46:22.456Z,93297.78
2022-11-03T16:49:05.069Z,93292.66
2022-11-03T16:51:34.029Z,93282.09
2022-11-03T16:54:01.650Z,93271.22
2022-11-03T16:56:29.560Z,93276.94
2022-11-03T16:58:57.404Z,93267.50
2022-11-03T17:01:25.110Z,93255.03
2022-11-03T17:03:53.959Z,93257.72
2022-11-03T17:06:21.652Z,93254.69
2022-11-03T17:08:53.441Z,93246.06
2022-11-03T17:11:35.770Z,93247.44
2022-11-03T17:14:07.221Z,93243.44
2022-11-03T17:16:34.900Z,93237.19
2022-11-03T17:19:02.653Z,93233.16
2022-11-03T17:21:30.262Z,93221.25
2022-11-03T17:23:59.957Z,93202.25
2022-11-03T17:26:30.684Z,93199.88
2022-11-03T17:28:58.448Z,93188.69
2022-11-03T17:31:26.113Z,93179.75
2022-11-03T17:33:54.990Z,93175.13
2022-11-03T17:36:22.517Z,93164.25
2022-11-03T17:38:50.573Z,93148.78
2022-11-03T17:41:19.503Z,93145.25
2022-11-03T17:43:47.459Z,93140.63
2022-11-03T17:46:16.305Z,93140.63
2022-11-03T17:48:44.115Z,93142.53
2022-11-03T17:51:13.649Z,93159.66
2022-11-03T17:53:42.155Z,93151.78
2022-11-03T17:56:29.142Z,93152.59
2022-11-03T17:58:59.398Z,93159.16
2022-11-03T18:01:27.648Z,93166.97
2022-11-03T18:03:56.439Z,93159.94
2022-11-03T18:06:25.348Z,93168.06
2022-11-03T18:08:53.032Z,93161.84
2022-11-03T18:11:51.038Z,93156.72
2022-11-03T18:14:19.980Z,93149.38
2022-11-03T18:16:47.588Z,93143.13
2022-11-03T18:19:15.873Z,93136.88
2022-11-03T18:21:43.828Z,93128.47
2022-11-03T18:24:12.978Z,93136.81
2022-11-03T18:26:40.757Z,93128.56
2022-11-03T18:29:08.892Z,93129.78
2022-11-03T18:31:39.464Z,93121.25
2022-11-03T18:34:08.133Z,93120.88
2022-11-03T18:36:35.698Z,93109.59
2022-11-03T18:39:03.671Z,93095.94
2022-11-03T18:41:39.187Z,93090.41
2022-11-03T18:44:18.664Z,93091.13
2022-11-03T18:46:47.869Z,93091.84
2022-11-03T18:49:15.647Z,93079.25
2022-11-03T18:51:45.232Z,93074.84
2022-11-03T18:54:13.825Z,93075.50
2022-11-03T18:56:41.490Z,93072.38
2022-11-03T18:59:10.761Z,93073.41
2022-11-03T19:01:38.463Z,93065.72
2022-11-03T19:04:10.856Z,93065.63
2022-11-03T19:06:38.457Z,93046.28
2022-11-03T19:09:06.069Z,93058.97
2022-11-03T19:11:33.641Z,93040.94
2022-11-03T19:14:01.416Z,93047.69
2022-11-03T19:16:30.685Z,93038.06
2022-11-03T19:18:58.388Z,93033.94
2022-11-03T19:21:27.547Z,93022.78
2022-11-03T19:23:58.290Z,93016.72
2022-11-03T19:26:27.880Z,93008.25
2022-11-03T19:28:57.168Z,93013.88
2022-11-03T19:31:25.691Z,93022.50
2022-11-03T19:33:54.069Z,93027.34
2022-11-03T19:36:21.797Z,93033.59
2022-11-03T19:38:50.895Z,93028.97
2022-11-03T19:41:36.375Z,93022.72
2022-11-03T19:44:06.907Z,93013.13
2022-11-03T19:46:34.556Z,93005.16
2022-11-03T19:49:02.330Z,93000.50
2022-11-03T19:51:30.491Z,92993.97
2022-11-03T19:53:59.492Z,92992.06
2022-11-03T19:56:27.096Z,92982.47
2022-11-03T19:58:54.881Z,92982.16
2022-11-03T20:01:23.383Z,92976.72
2022-11-03T20:03:51.020Z,92970.47
2022-11-03T20:06:19.559Z,92970.16
2022-11-03T20:08:47.599Z,92960.09
2022-11-03T20:11:16.647Z,92953.84
2022-11-03T20:13:44.344Z,92948.91
2022-11-03T20:16:13.173Z,92943.78
2022-11-03T20:18:41.083Z,92933.41
2022-11-03T20:21:09.011Z,92923.31
2022-11-03T20:23:39.141Z,92912.25
2022-11-03T20:26:07.277Z,92904.38
2022-11-03T20:28:37.604Z,92907.41
2022-11-03T20:31:05.361Z,92905.31
2022-11-03T20:33:33.050Z,92899.88
2022-11-03T20:36:01.336Z,92899.38
2022-11-03T20:38:29.137Z,92907.25
2022-11-03T20:40:58.549Z,92903.22
2022-11-03T20:43:27.347Z,92891.97
2022-11-03T20:45:56.322Z,92888.59
2022-11-03T20:48:23.980Z,92884.09
2022-11-03T20:50:51.580Z,92876.38
2022-11-03T20:53:19.768Z,92876.50
2022-11-03T20:55:47.536Z,92864.94
2022-11-03T20:58:15.933Z,92868.63
2022-11-03T21:00:44.003Z,92860.56
2022-11-03T21:03:31.431Z,92855.75
2022-11-03T21:06:04.590Z,92846.13
2022-11-03T21:08:32.222Z,92851.06
2022-11-03T21:11:20.492Z,92859.03
2022-11-03T21:13:48.082Z,92868.91
2022-11-03T21:16:33.201Z,92874.19
2022-11-03T21:19:20.042Z,92866.94
2022-11-03T21:21:47.607Z,92877.31
2022-11-03T21:24:15.217Z,92865.41
2022-11-03T21:26:42.788Z,92873.06
2022-11-03T21:29:10.355Z,92861.72
2022-11-03T21:31:37.882Z,92854.97
2022-11-03T21:34:06.880Z,92858.00
2022-11-03T21:36:34.499Z,92845.84
2022-11-03T21:39:02.100Z,92852.38
2022-11-03T21:41:47.101Z,92852.69
2022-11-03T21:44:17.696Z,92865.78
2022-11-03T21:46:46.684Z,92868.78
2022-11-03T21:49:33.324Z,92871.81
2022-11-03T21:52:00.949Z,92873.22
2022-11-03T21:54:28.507Z,92866.19
2022-11-03T21:56:56.128Z,92871.13
2022-11-03T21:59:23.864Z,92874.97
2022-11-03T22:01:54.994Z,92899.69
2022-11-03T22:04:24.206Z,92896.19
2022-11-03T22:06:51.945Z,92892.97
2022-11-03T22:09:19.581Z,92915.00
2022-11-03T22:11:47.852Z,92929.69
2022-11-03T22:14:15.808Z,92926.97
2022-11-03T22:16:42.706Z,92935.09
2022-11-03T22:19:29.439Z,92938.13
2022-11-03T22:22:16.066Z,92952.81
2022-11-03T22:25:01.371Z,92960.16
2022-11-03T22:27:29.687Z,92973.22
2022-11-03T22:30:15.368Z,92994.94
2022-11-03T22:32:43.131Z,93006.91
2022-11-03T22:35:29.172Z,93022.41
2022-11-03T22:38:07.948Z,93034.38
2022-11-03T22:40:53.230Z,93031.66
2022-11-03T22:43:38.627Z,93030.03
2022-11-03T22:46:06.236Z,93031.94
2022-11-03T22:48:33.838Z,93032.25
2022-11-03T22:51:02.862Z,93043.13
2022-11-03T22:53:50.703Z,93059.69
2022-11-03T22:56:18.624Z,93067.03
2022-11-03T22:58:46.460Z,93077.09
2022-11-03T23:01:14.932Z,93083.63
2022-11-03T23:03:43.070Z,93099.91
2022-11-03T23:06:12.033Z,93105.34
2022-11-03T23:08:42.032Z,93108.34
2022-11-03T23:11:10.451Z,93114.09
2022-11-03T23:13:38.364Z,93111.38
2022-11-03T23:16:13.099Z,93112.47
2022-11-03T23:18:58.115Z,93119.81
2022-11-03T23:21:25.745Z,93117.88
2022-11-03T23:24:12.148Z,93124.41
2022-11-03T23:26:39.707Z,93132.88
2022-11-03T23:29:07.371Z,93136.69
2022-11-03T23:31:35.023Z,93149.44
2022-11-03T23:34:02.834Z,93156.00
2022-11-03T23:36:30.463Z,93156.00
2022-11-03T23:38:59.561Z,93168.78
2022-11-03T23:41:27.243Z,93182.34
2022-11-03T23:43:54.962Z,93168.22
2022-11-03T23:46:41.434Z,93188.06
2022-11-03T23:49:09.138Z,93190.25
2022-11-03T23:51:37.263Z,93190.25
2022-11-03T23:54:07.635Z,93199.19
2022-11-03T23:56:53.398Z,93207.66
2022-11-03T23:59:21.103Z,93206.84
